createdAt,value
2022-10-09T00:00:47.537Z,9.30
2022-10-09T00:03:14.686Z,9.40
2022-10-09T00:05:41.727Z,9.30
2022-10-09T00:08:08.656Z,9.70
2022-10-09T00:10:40.216Z,9.60
2022-10-09T00:13:07.061Z,9.20
2022-10-09T00:15:38.325Z,10.00
2022-10-09T00:18:05.726Z,9.10
2022-10-09T00:20:37.104Z,9.00
2022-10-09T00:23:04.260Z,9.00
2022-10-09T00:25:31.284Z,8.90
2022-10-09T00:27:58.636Z,10.80
2022-10-09T00:30:25.588Z,9.00
2022-10-09T00:32:52.737Z,8.80
2022-10-09T00:35:19.683Z,8.80
2022-10-09T00:37:46.649Z,8.80
2022-10-09T00:40:13.571Z,8.80
2022-10-09T00:42:40.397Z,10.10
2022-10-09T00:45:10.711Z,8.70
2022-10-09T00:47:47.555Z,8.70
2022-10-09T00:50:26.440Z,8.70
2022-10-09T00:52:55.962Z,9.20
2022-10-09T00:55:23.031Z,8.70
2022-10-09T00:57:50.778Z,8.70
2022-10-09T01:00:17.943Z,8.60
2022-10-09T01:02:44.834Z,10.30
2022-10-09T01:05:11.755Z,9.20
2022-10-09T01:07:49.918Z,9.90
2022-10-09T01:10:24.306Z,8.60
2022-10-09T01:13:06.862Z,8.60
2022-10-09T01:15:47.722Z,8.60
2022-10-09T01:18:23.672Z,8.60
2022-10-09T01:20:50.548Z,8.60
2022-10-09T01:23:32.082Z,9.00
2022-10-09T01:26:15.684Z,8.60
2022-10-09T01:28:55.231Z,8.60
2022-10-09T01:31:22.340Z,8.50
2022-10-09T01:33:49.186Z,8.50
2022-10-09T01:36:16.440Z,8.60
2022-10-09T01:38:43.856Z,10.90
2022-10-09T01:41:10.741Z,9.80
2022-10-09T01:43:37.563Z,8.50
2022-10-09T01:46:23.673Z,8.80
2022-10-09T01:49:06.891Z,8.40
2022-10-09T01:51:38.800Z,8.40
2022-10-09T01:54:06.378Z,9.60
2022-10-09T01:56:33.565Z,8.40
2022-10-09T01:59:02.345Z,8.30
2022-10-09T02:01:33.815Z,8.20
2022-10-09T02:04:01.258Z,6.60
2022-10-09T02:06:28.462Z,8.80
2022-10-09T02:08:55.675Z,8.10
2022-10-09T02:11:22.468Z,8.40
2022-10-09T02:13:50.693Z,8.20
2022-10-09T02:16:17.567Z,9.80
2022-10-09T02:18:46.004Z,8.60
2022-10-09T02:21:18.216Z,8.00
2022-10-09T02:23:45.219Z,9.00
2022-10-09T02:26:12.040Z,10.30
2022-10-09T02:28:41.458Z,10.90
2022-10-09T02:31:20.105Z,7.80
2022-10-09T02:33:47.011Z,8.70
2022-10-09T02:36:14.740Z,10.60
2022-10-09T02:38:41.588Z,7.70
2022-10-09T02:41:08.416Z,7.70
2022-10-09T02:43:35.232Z,10.10
2022-10-09T02:46:02.153Z,7.70
2022-10-09T02:48:28.992Z,7.70
2022-10-09T02:50:55.826Z,7.70
2022-10-09T02:53:22.764Z,8.20
2022-10-09T02:55:49.594Z,8.10
2022-10-09T02:58:16.378Z,7.90
2022-10-09T03:00:47.614Z,9.30
2022-10-09T03:03:14.725Z,8.80
2022-10-09T03:05:41.559Z,10.40
2022-10-09T03:08:08.360Z,10.40
2022-10-09T03:10:37.590Z,9.50
2022-10-09T03:13:04.862Z,7.50
2022-10-09T03:15:35.559Z,9.60
2022-10-09T03:18:02.479Z,7.40
2022-10-09T03:20:32.453Z,7.40
2022-10-09T03:22:59.243Z,7.40
2022-10-09T03:25:26.104Z,7.40
2022-10-09T03:27:52.899Z,7.90
2022-10-09T03:30:19.718Z,8.70
2022-10-09T03:32:46.798Z,7.40
2022-10-09T03:35:13.878Z,8.20
2022-10-09T03:37:40.689Z,9.20
2022-10-09T03:40:07.942Z,7.40
2022-10-09T03:42:34.744Z,7.40
2022-10-09T03:45:04.536Z,7.90
2022-10-09T03:47:31.866Z,9.30
2022-10-09T03:49:58.682Z,9.20
2022-10-09T03:52:25.605Z,10.30
2022-10-09T03:54:52.422Z,10.10
2022-10-09T03:57:19.205Z,8.90
2022-10-09T03:59:46.039Z,9.80
2022-10-09T04:02:12.912Z,7.20
2022-10-09T04:04:39.791Z,8.00
2022-10-09T04:07:06.592Z,7.70
2022-10-09T04:09:33.413Z,9.50
2022-10-09T04:12:00.251Z,7.50
2022-10-09T04:14:27.072Z,8.50
2022-10-09T04:16:54.175Z,7.80
2022-10-09T04:19:21.016Z,7.60
2022-10-09T04:21:47.819Z,8.40
2022-10-09T04:24:14.618Z,8.80
2022-10-09T04:26:41.447Z,7.00
2022-10-09T04:29:08.274Z,9.00
2022-10-09T04:31:35.125Z,7.90
2022-10-09T04:34:02.001Z,9.50
2022-10-09T04:36:28.904Z,9.90
2022-10-09T04:38:55.789Z,8.00
2022-10-09T04:41:22.632Z,6.90
2022-10-09T04:43:49.495Z,8.20
2022-10-09T04:46:16.410Z,9.60
2022-10-09T04:48:44.566Z,8.50
2022-10-09T04:51:12.002Z,8.10
2022-10-09T04:53:39.322Z,9.30
2022-10-09T04:56:13.616Z,9.00
2022-10-09T04:58:43.332Z,6.70
2022-10-09T05:01:19.780Z,8.30
2022-10-09T05:03:46.688Z,6.70
2022-10-09T05:06:13.846Z,7.70
2022-10-09T05:08:40.831Z,6.90
2022-10-09T05:11:09.586Z,8.00
2022-10-09T05:13:37.916Z,8.30
2022-10-09T05:16:06.013Z,6.80
2022-10-09T05:18:32.952Z,6.70
2022-10-09T05:20:59.872Z,9.30
2022-10-09T05:23:27.564Z,8.10
2022-10-09T05:25:59.174Z,8.00
2022-10-09T05:28:26.050Z,6.70
2022-10-09T05:30:53.134Z,8.50
2022-10-09T05:33:19.982Z,7.40
2022-10-09T05:36:00.497Z,7.30
2022-10-09T05:38:27.767Z,8.20
2022-10-09T05:40:58.836Z,8.40
2022-10-09T05:43:26.712Z,6.70
2022-10-09T05:45:53.777Z,8.20
2022-10-09T05:48:20.828Z,7.40
2022-10-09T05:50:47.930Z,7.20
2022-10-09T05:53:14.714Z,8.70
2022-10-09T05:55:41.572Z,7.40
2022-10-09T05:58:08.444Z,7.20
2022-10-09T06:00:35.253Z,6.70
2022-10-09T06:03:02.708Z,8.60
2022-10-09T06:05:29.610Z,7.20
2022-10-09T06:07:56.430Z,7.30
2022-10-09T06:10:23.383Z,8.90
2022-10-09T06:12:50.520Z,7.10
2022-10-09T06:15:17.699Z,7.60
2022-10-09T06:17:44.508Z,6.70
2022-10-09T06:20:11.362Z,9.40
2022-10-09T06:22:38.175Z,9.10
2022-10-09T06:25:05.409Z,8.00
2022-10-09T06:27:32.222Z,6.60
2022-10-09T06:29:59.080Z,5.10
2022-10-09T06:32:25.877Z,8.10
2022-10-09T06:34:52.985Z,7.50
2022-10-09T06:37:19.860Z,6.50
2022-10-09T06:39:46.727Z,7.30
2022-10-09T06:42:13.561Z,8.40
2022-10-09T06:44:50.559Z,7.40
2022-10-09T06:47:17.373Z,8.10
2022-10-09T06:49:44.193Z,6.90
2022-10-09T06:52:10.989Z,7.50
2022-10-09T06:54:37.837Z,7.40
2022-10-09T06:57:04.645Z,6.60
2022-10-09T06:59:31.516Z,6.60
2022-10-09T07:01:58.510Z,6.70
2022-10-09T07:04:25.512Z,9.30
2022-10-09T07:06:52.407Z,8.20
2022-10-09T07:09:19.205Z,6.80
2022-10-09T07:11:48.923Z,7.00
2022-10-09T07:14:17.009Z,6.90
2022-10-09T07:16:45.257Z,7.00
2022-10-09T07:19:12.786Z,8.80
2022-10-09T07:21:41.265Z,7.20
2022-10-09T07:24:08.147Z,9.50
2022-10-09T07:26:36.743Z,7.30
2022-10-09T07:29:04.688Z,7.80
2022-10-09T07:31:31.528Z,9.70
2022-10-09T07:33:58.493Z,8.00
2022-10-09T07:36:25.397Z,9.20
2022-10-09T07:38:53.830Z,7.70
2022-10-09T07:41:21.294Z,7.80
2022-10-09T07:43:48.201Z,8.30
2022-10-09T07:46:18.959Z,8.00
2022-10-09T07:48:46.181Z,8.10
2022-10-09T07:51:23.750Z,9.50
2022-10-09T07:53:50.918Z,8.20
2022-10-09T07:56:20.061Z,8.40
2022-10-09T07:58:50.764Z,9.60
2022-10-09T08:01:20.305Z,9.10
2022-10-09T08:03:47.706Z,9.50
2022-10-09T08:06:14.676Z,9.20
2022-10-09T08:08:42.519Z,8.80
2022-10-09T08:11:14.150Z,9.20
2022-10-09T08:13:41.336Z,9.10
2022-10-09T08:16:08.343Z,9.70
2022-10-09T08:18:35.727Z,9.40
2022-10-09T08:21:14.484Z,9.50
2022-10-09T08:23:41.409Z,9.40
2022-10-09T08:26:19.093Z,9.50
2022-10-09T08:28:53.920Z,9.60
2022-10-09T08:31:21.154Z,9.70
2022-10-09T08:33:48.119Z,9.80
2022-10-09T08:36:15.361Z,10.00
2022-10-09T08:38:47.612Z,10.00
2022-10-09T08:41:33.416Z,10.10
2022-10-09T08:44:22.337Z,10.20
2022-10-09T08:47:05.490Z,10.20
2022-10-09T08:49:47.451Z,10.30
2022-10-09T08:52:17.092Z,10.40
2022-10-09T08:54:43.994Z,10.50
2022-10-09T08:57:14.922Z,10.60
2022-10-09T08:59:42.021Z,10.70
2022-10-09T09:02:33.195Z,10.80
2022-10-09T09:05:02.840Z,10.90
2022-10-09T09:07:54.693Z,10.90
2022-10-09T09:10:33.736Z,11.00
2022-10-09T09:13:24.768Z,11.10
2022-10-09T09:15:55.916Z,11.20
2022-10-09T09:18:42.989Z,11.30
2022-10-09T09:21:43.858Z,11.40
2022-10-09T09:24:14.967Z,11.50
2022-10-09T09:26:42.929Z,11.60
2022-10-09T09:29:10.806Z,11.60
2022-10-09T09:31:37.763Z,11.60
2022-10-09T09:34:22.925Z,11.60
2022-10-09T09:36:49.838Z,11.60
2022-10-09T09:42:09.738Z,11.70
2022-10-09T09:44:38.217Z,12.50
2022-10-09T09:47:05.075Z,12.10
2022-10-09T09:49:31.969Z,12.00
2022-10-09T09:51:58.865Z,12.00
2022-10-09T09:54:29.621Z,12.00
2022-10-09T09:57:18.362Z,12.10
2022-10-09T09:59:45.381Z,12.00
2022-10-09T10:02:15.375Z,11.90
2022-10-09T10:04:58.942Z,11.90
2022-10-09T10:07:38.736Z,11.90
2022-10-09T10:10:24.973Z,12.00
2022-10-09T10:12:52.401Z,12.00
2022-10-09T10:15:29.350Z,12.10
2022-10-09T10:17:59.000Z,11.90
2022-10-09T10:20:26.569Z,11.80
2022-10-09T10:22:54.676Z,11.90
2022-10-09T10:25:23.999Z,11.90
2022-10-09T10:27:51.931Z,11.90
2022-10-09T10:30:19.927Z,12.00
2022-10-09T10:32:52.538Z,12.10
2022-10-09T10:35:30.744Z,12.10
2022-10-09T10:38:35.192Z,12.20
2022-10-09T10:41:33.056Z,12.20
2022-10-09T10:44:08.088Z,12.20
2022-10-09T10:46:39.688Z,12.20
2022-10-09T10:49:07.949Z,12.40
2022-10-09T10:51:44.451Z,12.50
2022-10-09T10:54:19.873Z,12.50
2022-10-09T10:57:06.460Z,12.60
2022-10-09T10:59:36.596Z,12.80
2022-10-09T11:02:09.337Z,12.90
2022-10-09T11:04:37.317Z,13.10
2022-10-09T11:07:44.358Z,13.20
2022-10-09T11:10:33.209Z,13.20
2022-10-09T11:13:20.347Z,13.30
2022-10-09T11:16:12.325Z,13.40
2022-10-09T11:18:41.939Z,13.50
2022-10-09T11:21:46.683Z,13.60
2022-10-09T11:24:36.752Z,13.80
2022-10-09T11:27:12.570Z,13.90
2022-10-09T11:29:48.179Z,14.00
2022-10-09T11:32:24.717Z,14.00
2022-10-09T11:34:58.583Z,14.00
2022-10-09T11:37:28.532Z,14.10
2022-10-09T11:39:56.446Z,14.10
2022-10-09T11:42:24.254Z,14.10
2022-10-09T11:45:02.607Z,14.20
2022-10-09T11:47:41.767Z,14.10
2022-10-09T11:50:29.967Z,14.20
2022-10-09T11:53:11.180Z,14.20
2022-10-09T11:55:38.023Z,14.20
2022-10-09T11:58:24.505Z,14.30
2022-10-09T12:00:54.238Z,14.30
2022-10-09T12:03:33.589Z,14.30
2022-10-09T12:06:06.003Z,14.30
2022-10-09T12:08:32.949Z,14.30
2022-10-09T12:11:07.719Z,14.30
2022-10-09T12:13:38.113Z,14.40
2022-10-09T12:16:06.128Z,14.30
2022-10-09T12:18:37.866Z,14.40
2022-10-09T12:21:17.903Z,14.40
2022-10-09T12:23:46.065Z,14.40
2022-10-09T12:26:12.921Z,14.40
2022-10-09T12:28:45.685Z,14.40
2022-10-09T12:31:26.535Z,14.40
2022-10-09T12:34:17.505Z,14.40
2022-10-09T12:36:44.304Z,14.40
2022-10-09T12:39:15.372Z,14.40
2022-10-09T12:41:43.335Z,14.50
2022-10-09T12:44:35.489Z,14.50
2022-10-09T12:47:13.596Z,14.50
2022-10-09T12:49:40.489Z,14.50
2022-10-09T12:52:14.355Z,14.60
2022-10-09T12:54:43.352Z,14.60
2022-10-09T12:57:13.073Z,14.70
2022-10-09T12:59:39.922Z,14.60
2022-10-09T13:02:11.558Z,14.70
2022-10-09T13:04:38.535Z,14.60
2022-10-09T13:07:25.616Z,14.60
2022-10-09T13:09:58.268Z,14.60
2022-10-09T13:12:26.656Z,14.50
2022-10-09T13:14:58.249Z,14.50
2022-10-09T13:17:40.806Z,14.60
2022-10-09T13:20:13.553Z,14.60
2022-10-09T13:22:40.391Z,14.70
2022-10-09T13:25:07.558Z,14.70
2022-10-09T13:27:37.636Z,14.80
2022-10-09T13:33:17.168Z,15.10
2022-10-09T13:35:44.221Z,15.20
2022-10-09T13:38:14.230Z,15.30
2022-10-09T13:40:41.303Z,15.40
2022-10-09T13:43:09.147Z,15.50
2022-10-09T13:45:36.037Z,15.50
2022-10-09T13:48:02.875Z,15.60
2022-10-09T13:50:29.784Z,15.70
2022-10-09T13:52:56.600Z,16.00
2022-10-09T13:55:23.447Z,15.90
2022-10-09T13:57:50.452Z,15.90
2022-10-09T14:00:17.895Z,16.00
2022-10-09T14:02:44.730Z,16.00
2022-10-09T14:05:11.556Z,16.10
2022-10-09T14:07:38.375Z,15.70
2022-10-09T14:10:05.641Z,16.20
2022-10-09T14:12:32.515Z,16.20
2022-10-09T14:14:59.398Z,16.20
2022-10-09T14:17:26.326Z,16.20
2022-10-09T14:19:53.248Z,16.30
2022-10-09T14:22:20.187Z,16.30
2022-10-09T14:24:47.052Z,16.30
2022-10-09T14:27:13.884Z,16.30
2022-10-09T14:29:40.971Z,16.30
2022-10-09T14:32:08.038Z,16.30
2022-10-09T14:34:34.986Z,16.30
2022-10-09T14:37:04.903Z,16.20
2022-10-09T14:39:34.238Z,16.20
2022-10-09T14:42:01.043Z,16.30
2022-10-09T14:44:27.888Z,16.20
2022-10-09T14:46:54.734Z,16.20
2022-10-09T14:49:21.621Z,16.10
2022-10-09T14:51:48.428Z,16.10
2022-10-09T14:54:15.350Z,16.10
2022-10-09T14:56:42.181Z,16.10
2022-10-09T14:59:09.138Z,16.10
2022-10-09T15:01:35.966Z,16.00
2022-10-09T15:04:04.406Z,16.00
2022-10-09T15:06:31.765Z,15.90
2022-10-09T15:09:05.714Z,15.80
2022-10-09T15:11:33.060Z,15.70
2022-10-09T15:13:59.903Z,15.50
2022-10-09T15:16:26.743Z,15.40
2022-10-09T15:18:54.268Z,15.30
2022-10-09T15:21:25.813Z,15.20
2022-10-09T15:23:56.625Z,15.00
2022-10-09T15:26:26.940Z,14.90
2022-10-09T15:28:53.769Z,14.80
2022-10-09T15:31:37.366Z,14.70
2022-10-09T15:34:04.935Z,14.60
2022-10-09T15:36:34.800Z,14.40
2022-10-09T15:39:05.588Z,14.30
2022-10-09T15:41:33.855Z,14.30
2022-10-09T15:44:03.143Z,14.10
2022-10-09T15:46:30.347Z,14.10
2022-10-09T15:48:57.262Z,14.00
2022-10-09T15:51:24.275Z,13.80
2022-10-09T15:53:51.543Z,13.70
2022-10-09T15:56:21.720Z,13.60
2022-10-09T15:58:48.870Z,13.60
2022-10-09T16:01:16.249Z,13.50
2022-10-09T16:03:43.259Z,13.40
2022-10-09T16:06:11.935Z,13.40
2022-10-09T16:08:38.850Z,13.30
2022-10-09T16:11:06.777Z,13.20
2022-10-09T16:13:37.966Z,13.10
2022-10-09T16:16:05.848Z,13.00
2022-10-09T16:18:35.038Z,13.00
2022-10-09T16:21:22.001Z,12.90
2022-10-09T16:23:49.071Z,12.90
2022-10-09T16:26:17.654Z,13.00
2022-10-09T16:28:45.146Z,12.90
2022-10-09T16:31:26.195Z,13.10
2022-10-09T16:33:53.102Z,12.80
2022-10-09T16:36:20.081Z,14.20
2022-10-09T16:38:46.896Z,12.70
2022-10-09T16:41:17.818Z,12.90
2022-10-09T16:43:45.722Z,12.70
2022-10-09T16:46:17.007Z,12.50
2022-10-09T16:48:44.154Z,12.30
2022-10-09T16:51:12.312Z,12.30
2022-10-09T16:53:39.373Z,12.20
2022-10-09T16:56:10.498Z,12.00
2022-10-09T16:58:37.451Z,11.90
2022-10-09T17:01:09.424Z,11.80
2022-10-09T17:03:37.037Z,11.70
2022-10-09T17:06:19.402Z,11.80
2022-10-09T17:08:47.431Z,11.60
2022-10-09T17:11:14.544Z,11.50
2022-10-09T17:13:41.423Z,11.40
2022-10-09T17:16:14.416Z,11.40
2022-10-09T17:18:44.154Z,11.30
2022-10-09T17:21:11.900Z,11.30
2022-10-09T17:23:38.800Z,11.20
2022-10-09T17:26:13.616Z,11.20
2022-10-09T17:28:40.836Z,11.20
2022-10-09T17:31:09.652Z,11.20
2022-10-09T17:33:41.938Z,11.10
2022-10-09T17:36:09.533Z,11.50
2022-10-09T17:38:36.528Z,11.00
2022-10-09T17:41:04.521Z,11.00
2022-10-09T17:43:31.363Z,11.60
2022-10-09T17:45:58.297Z,11.30
2022-10-09T17:48:25.175Z,11.00
2022-10-09T17:50:54.937Z,11.00
2022-10-09T17:53:24.948Z,10.90
2022-10-09T17:55:52.876Z,10.90
2022-10-09T17:58:20.197Z,10.90
2022-10-09T18:00:47.816Z,11.00
2022-10-09T18:03:15.290Z,11.90
2022-10-09T18:05:43.285Z,12.00
2022-10-09T18:08:10.228Z,11.00
2022-10-09T18:10:37.243Z,10.90
2022-10-09T18:13:04.983Z,11.50
2022-10-09T18:15:31.768Z,11.00
2022-10-09T18:17:58.657Z,11.10
2022-10-09T18:20:25.572Z,12.40
2022-10-09T18:22:52.420Z,11.00
2022-10-09T18:25:19.233Z,11.00
2022-10-09T18:27:46.057Z,11.00
2022-10-09T18:30:13.531Z,12.90
2022-10-09T18:32:40.517Z,11.00
2022-10-09T18:35:07.621Z,12.20
2022-10-09T18:37:34.597Z,11.00
2022-10-09T18:40:01.447Z,13.00
2022-10-09T18:42:28.241Z,11.00
2022-10-09T18:44:55.186Z,11.00
2022-10-09T18:47:22.287Z,11.00
2022-10-09T18:49:50.658Z,13.10
2022-10-09T18:52:17.450Z,11.00
2022-10-09T18:54:44.880Z,11.00
2022-10-09T18:57:11.879Z,12.00
2022-10-09T18:59:39.044Z,11.00
2022-10-09T19:02:05.883Z,11.10
2022-10-09T19:04:32.920Z,11.30
2022-10-09T19:06:59.836Z,11.30
2022-10-09T19:09:26.868Z,11.30
2022-10-09T19:11:53.742Z,11.40
2022-10-09T19:14:20.650Z,11.60
2022-10-09T19:16:47.441Z,11.30
2022-10-09T19:19:14.332Z,11.80
2022-10-09T19:21:43.907Z,11.30
2022-10-09T19:24:11.561Z,13.00
2022-10-09T19:26:38.471Z,11.50
2022-10-09T19:29:05.826Z,13.50
2022-10-09T19:31:33.598Z,13.20
2022-10-09T19:34:01.504Z,11.60
2022-10-09T19:36:28.328Z,11.10
2022-10-09T19:38:55.151Z,11.00
2022-10-09T19:41:21.964Z,12.60
2022-10-09T19:43:48.759Z,11.00
2022-10-09T19:46:20.832Z,11.10
2022-10-09T19:48:47.679Z,11.00
2022-10-09T19:51:19.427Z,11.00
2022-10-09T19:53:46.289Z,11.10
2022-10-09T19:56:14.850Z,10.90
2022-10-09T19:58:42.450Z,10.90
2022-10-09T20:01:14.313Z,10.90
2022-10-09T20:03:41.465Z,10.80
2022-10-09T20:06:08.794Z,11.80
2022-10-09T20:08:36.672Z,12.00
2022-10-09T20:11:03.673Z,10.80
2022-10-09T20:13:31.665Z,11.00
2022-10-09T20:16:02.482Z,10.70
2022-10-09T20:18:29.425Z,10.70
2022-10-09T20:20:56.226Z,10.80
2022-10-09T20:23:23.100Z,10.80
2022-10-09T20:25:59.336Z,11.60
2022-10-09T20:28:26.244Z,11.10
2022-10-09T20:31:00.255Z,10.80
2022-10-09T20:33:30.606Z,10.80
2022-10-09T20:35:57.893Z,10.80
2022-10-09T20:38:25.908Z,10.80
2022-10-09T20:40:52.936Z,11.10
2022-10-09T20:43:19.773Z,10.80
2022-10-09T20:45:46.582Z,10.80
2022-10-09T20:48:13.447Z,10.70
2022-10-09T20:50:41.207Z,10.70
2022-10-09T20:53:09.974Z,10.70
2022-10-09T20:55:36.820Z,10.70
2022-10-09T20:58:03.994Z,11.00
2022-10-09T21:00:30.823Z,10.60
2022-10-09T21:02:57.685Z,10.60
2022-10-09T21:05:24.489Z,10.70
2022-10-09T21:07:51.399Z,10.80
2022-10-09T21:10:18.322Z,10.90
2022-10-09T21:12:45.157Z,11.10
2022-10-09T21:15:12.062Z,11.80
2022-10-09T21:17:38.940Z,13.00
2022-10-09T21:20:06.200Z,11.30
2022-10-09T21:22:33.053Z,11.40
2022-10-09T21:24:59.869Z,11.40
2022-10-09T21:27:26.678Z,11.40
2022-10-09T21:29:53.510Z,11.30
2022-10-09T21:32:20.334Z,11.40
2022-10-09T21:34:47.286Z,11.40
2022-10-09T21:37:21.365Z,11.50
2022-10-09T21:39:48.936Z,11.70
2022-10-09T21:42:15.733Z,11.50
2022-10-09T21:44:42.563Z,11.90
2022-10-09T21:47:14.877Z,11.60
2022-10-09T21:49:41.860Z,11.70
2022-10-09T21:52:09.901Z,11.60
2022-10-09T21:54:36.842Z,11.60
2022-10-09T21:57:03.809Z,11.60
2022-10-09T21:59:30.640Z,11.60
2022-10-09T22:01:57.454Z,11.60
2022-10-09T22:04:24.295Z,11.70
2022-10-09T22:06:51.115Z,11.70
2022-10-09T22:09:18.051Z,11.80
2022-10-09T22:11:45.013Z,11.80
2022-10-09T22:14:12.123Z,11.80
2022-10-09T22:16:38.957Z,11.80
2022-10-09T22:19:05.816Z,11.80
2022-10-09T22:21:32.881Z,11.80
2022-10-09T22:24:00.711Z,10.40
2022-10-09T22:26:27.557Z,11.70
2022-10-09T22:28:54.393Z,11.80
2022-10-09T22:31:22.708Z,11.80
2022-10-09T22:33:51.030Z,11.80
2022-10-09T22:36:18.535Z,12.40
2022-10-09T22:38:45.609Z,11.80
2022-10-09T22:41:13.428Z,11.80
2022-10-09T22:43:40.942Z,11.80
2022-10-09T22:46:09.394Z,11.70
2022-10-09T22:48:36.778Z,11.70
2022-10-09T22:51:09.075Z,11.60
2022-10-09T22:53:36.635Z,11.70
2022-10-09T22:56:07.599Z,11.60
2022-10-09T22:58:34.446Z,11.50
2022-10-09T23:01:06.116Z,11.50
2022-10-09T23:03:33.028Z,11.60
2022-10-09T23:06:13.671Z,11.60
2022-10-09T23:08:41.334Z,11.60
2022-10-09T23:11:08.350Z,9.60
2022-10-09T23:13:35.520Z,11.50
2022-10-09T23:16:05.938Z,11.50
2022-10-09T23:18:33.060Z,11.50
2022-10-09T23:21:03.396Z,11.50
2022-10-09T23:23:31.385Z,11.50
2022-10-09T23:25:58.200Z,11.50
2022-10-09T23:28:27.778Z,11.80
2022-10-09T23:31:02.535Z,11.50
2022-10-09T23:33:29.400Z,11.50
2022-10-09T23:35:56.216Z,11.50
2022-10-09T23:38:23.271Z,11.60
2022-10-09T23:40:57.510Z,11.50
2022-10-09T23:43:24.656Z,11.50
2022-10-09T23:45:51.904Z,11.50
2022-10-09T23:48:18.745Z,11.60
2022-10-09T23:50:47.469Z,11.60
2022-10-09T23:53:14.431Z,11.70
2022-10-09T23:55:41.262Z,11.80
2022-10-09T23:58:08.134Z,11.90
